Time;durP1;ratioP1;P1;durP2;ratioP2;P2;SDS_P1;SDS_P2;PMS_P1;PMS_P2;Temp;Humidity;BMP_temperature;BMP_pressure;BME280_temperature;BME280_humidity;BME280_pressure;Samples;Min_cycle;Max_cycle;Signal;HPM_P1;HPM_P2
2022/01/07 00:02:16;;;;;;;;;;;8.00;94.40;;;;;;5021136;28;20124;-73
2022/01/07 00:04:42;;;;;;;;;;;8.10;94.50;;;;;;5020954;28;19910;-72
2022/01/07 00:07:09;;;;;;;;;;;8.10;94.50;;;;;;5021040;28;19910;-72
2022/01/07 00:09:36;;;;;;;;;;;8.10;94.50;;;;;;5020809;28;19916;-72
2022/01/07 00:12:03;;;;;;;;;;;8.10;94.40;;;;;;5020926;28;19955;-73
2022/01/07 00:14:29;;;;;;;;;;;8.10;94.50;;;;;;5019534;28;19932;-72
2022/01/07 00:16:54;;;;;;;;;;;8.10;94.40;;;;;;5020842;28;19996;-72
2022/01/07 00:19:20;;;;;;;;;;;8.10;94.40;;;;;;5020760;28;19910;-72
2022/01/07 00:21:46;;;;;;;;;;;8.10;94.40;;;;;;5020790;28;20483;-72
2022/01/07 00:24:11;;;;;;;;;;;8.10;94.30;;;;;;5019376;28;20016;-72
2022/01/07 00:26:37;;;;;;;;;;;8.00;94.30;;;;;;5020684;28;19965;-73
2022/01/07 00:29:03;;;;;;;;;;;8.00;94.30;;;;;;5020222;28;19909;-73
2022/01/07 00:31:29;;;;;;;;;;;8.00;94.40;;;;;;5020622;28;20004;-73
2022/01/07 00:33:54;;;;;;;;;;;7.90;94.40;;;;;;5032677;28;19909;-73
2022/01/07 00:36:20;;;;;;;;;;;7.90;94.40;;;;;;5020665;28;19916;-73
2022/01/07 00:38:45;;;;;;;;;;;7.90;94.50;;;;;;5020251;28;19945;-73
2022/01/07 00:41:11;;;;;;;;;;;7.90;94.60;;;;;;5020446;28;19917;-73
2022/01/07 00:43:37;;;;;;;;;;;7.90;94.60;;;;;;5007175;28;19909;-73
2022/01/07 00:46:02;;;;;;;;;;;7.90;94.70;;;;;;5020368;28;19968;-73
2022/01/07 00:48:28;;;;;;;;;;;7.90;94.80;;;;;;5033243;28;19949;-73
2022/01/07 00:50:53;;;;;;;;;;;7.90;94.70;;;;;;5031190;28;19945;-72
2022/01/07 00:53:19;;;;;;;;;;;7.90;94.70;;;;;;5020360;28;19913;-73
2022/01/07 00:55:45;;;;;;;;;;;7.90;94.70;;;;;;5008400;28;19950;-73
2022/01/07 00:58:10;;;;;;;;;;;7.90;94.60;;;;;;5018235;28;19956;-73
2022/01/07 01:00:36;;;;;;;;;;;7.90;94.50;;;;;;5018796;28;19964;-73
2022/01/07 01:03:02;;;;;;;;;;;7.80;94.40;;;;;;5019726;28;19910;-73
2022/01/07 01:05:28;;;;;;;;;;;7.80;94.50;;;;;;5020038;28;20396;-74
2022/01/07 01:07:54;;;;;;;;;;;7.80;94.50;;;;;;5018494;28;19910;-74
2022/01/07 01:10:20;;;;;;;;;;;7.80;94.50;;;;;;5019224;28;19920;-74
2022/01/07 01:12:47;;;;;;;;;;;7.70;94.50;;;;;;5019634;28;20284;-74
2022/01/07 01:15:14;;;;;;;;;;;7.70;94.60;;;;;;5019490;28;19909;-74
2022/01/07 01:17:40;;;;;;;;;;;7.70;94.50;;;;;;5019539;28;20304;-74
2022/01/07 01:20:07;;;;;;;;;;;7.70;94.60;;;;;;5019678;28;19910;-74
2022/01/07 01:22:32;;;;;;;;;;;7.70;94.60;;;;;;5018274;28;19909;-74
2022/01/07 01:24:58;;;;;;;;;;;7.70;94.60;;;;;;5018723;28;19968;-74
2022/01/07 01:27:24;;;;;;;;;;;7.70;94.50;;;;;;5019515;28;19909;-74
2022/01/07 01:29:49;;;;;;;;;;;7.60;94.30;;;;;;5019352;28;19910;-74
2022/01/07 01:32:16;;;;;;;;;;;7.60;94.20;;;;;;5009766;28;19917;-74
2022/01/07 01:34:42;;;;;;;;;;;7.60;94.20;;;;;;5025845;28;19913;-74
2022/01/07 01:37:07;;;;;;;;;;;7.50;94.30;;;;;;5019519;28;19949;-74
2022/01/07 01:39:33;;;;;;;;;;;7.50;94.30;;;;;;5017754;28;20403;-75
2022/01/07 01:41:59;;;;;;;;;;;7.40;94.10;;;;;;5019457;28;19937;-74
2022/01/07 01:44:25;;;;;;;;;;;7.40;94.30;;;;;;5018801;28;19916;-74
2022/01/07 01:46:50;;;;;;;;;;;7.30;94.40;;;;;;5025455;28;20272;-74
2022/01/07 01:49:16;;;;;;;;;;;7.40;94.60;;;;;;5025580;28;20284;-74
2022/01/07 01:51:42;;;;;;;;;;;7.30;94.50;;;;;;5028909;28;20343;-74
2022/01/07 01:54:07;;;;;;;;;;;7.30;94.70;;;;;;5018967;28;20320;-74
2022/01/07 01:56:34;;;;;;;;;;;7.30;94.90;;;;;;5005995;28;19986;-74
2022/01/07 01:59:00;;;;;;;;;;;7.30;94.90;;;;;;5018968;28;19964;-74
2022/01/07 02:01:25;;;;;;;;;;;7.30;95.00;;;;;;5017585;28;19917;-74
2022/01/07 02:03:51;;;;;;;;;;;7.30;95.00;;;;;;5018861;28;20391;-74
2022/01/07 02:06:17;;;;;;;;;;;7.30;94.90;;;;;;5018710;28;20008;-73
2022/01/07 02:08:43;;;;;;;;;;;7.40;95.00;;;;;;5018864;28;19964;-73
2022/01/07 02:11:09;;;;;;;;;;;7.30;94.90;;;;;;5018741;28;19920;-74
2022/01/07 02:13:35;;;;;;;;;;;7.40;94.90;;;;;;5018487;28;19909;-74
2022/01/07 02:16:00;;;;;;;;;;;7.40;94.90;;;;;;5018584;28;19952;-74
2022/01/07 02:18:26;;;;;;;;;;;7.40;94.90;;;;;;5018887;28;19910;-74
2022/01/07 02:20:51;;;;;;;;;;;7.30;94.90;;;;;;5017766;28;19910;-74
2022/01/07 02:23:18;;;;;;;;;;;7.30;95.00;;;;;;5018647;28;19909;-75
2022/01/07 02:25:44;;;;;;;;;;;7.40;95.10;;;;;;5016829;28;19928;-74
2022/01/07 02:28:10;;;;;;;;;;;7.30;95.00;;;;;;5018245;28;20004;-74
2022/01/07 02:30:35;;;;;;;;;;;7.30;95.10;;;;;;5018273;28;19980;-75
2022/01/07 02:33:01;;;;;;;;;;;7.30;95.20;;;;;;5029590;28;19913;-75
2022/01/07 02:35:28;;;;;;;;;;;7.30;95.30;;;;;;5017882;28;19909;-74
2022/01/07 02:37:54;;;;;;;;;;;7.30;95.30;;;;;;5018821;28;19909;-75
2022/01/07 02:40:20;;;;;;;;;;;7.30;95.40;;;;;;5018336;28;20289;-74
2022/01/07 02:42:46;;;;;;;;;;;7.30;95.40;;;;;;5018192;28;19949;-74
2022/01/07 02:45:13;;;;;;;;;;;7.30;95.50;;;;;;5016630;28;19910;-75
2022/01/07 02:48:03;;;;;;;;;;;7.20;95.50;;;;;;5018569;28;20436;-74
2022/01/07 02:50:27;;;;;;;;;;;7.20;95.40;;;;;;5014371;28;19909;-75
2022/01/07 02:52:53;;;;;;;;;;;7.20;95.40;;;;;;5021864;28;19909;-74
2022/01/07 02:55:19;;;;;;;;;;;7.30;95.40;;;;;;5010292;28;19914;-75
2022/01/07 02:57:45;;;;;;;;;;;7.30;95.50;;;;;;5013144;28;19952;-75
2022/01/07 03:00:12;;;;;;;;;;;7.30;95.50;;;;;;5018017;28;19956;-75
2022/01/07 03:02:38;;;;;;;;;;;7.40;95.60;;;;;;5016759;28;19956;-74
2022/01/07 03:05:03;;;;;;;;;;;7.50;95.70;;;;;;5018107;28;19916;-75
2022/01/07 03:07:29;;;;;;;;;;;7.60;96.00;;;;;;5017942;28;19909;-74
2022/01/07 03:09:55;;;;;;;;;;;7.60;95.70;;;;;;5016589;28;19940;-74
2022/01/07 03:12:21;;;;;;;;;;;7.60;95.70;;;;;;5017851;28;19971;-74
2022/01/07 03:14:48;;;;;;;;;;;7.60;95.60;;;;;;5017786;28;19917;-75
2022/01/07 03:17:14;;;;;;;;;;;7.70;95.50;;;;;;5016745;28;20436;-74
2022/01/07 03:19:39;;;;;;;;;;;7.70;95.40;;;;;;5017941;28;19914;-75
2022/01/07 03:22:05;;;;;;;;;;;7.70;95.30;;;;;;5017777;28;19918;-75
2022/01/07 03:24:31;;;;;;;;;;;7.80;95.20;;;;;;5017003;28;19932;-75
2022/01/07 03:26:56;;;;;;;;;;;7.80;94.90;;;;;;5017647;28;19910;-74
2022/01/07 03:29:22;;;;;;;;;;;7.80;94.90;;;;;;5017538;28;19910;-75
2022/01/07 03:31:48;;;;;;;;;;;7.80;94.90;;;;;;5018729;28;19933;-74
2022/01/07 03:34:13;;;;;;;;;;;7.80;94.80;;;;;;5031884;28;19941;-75
2022/01/07 03:36:39;;;;;;;;;;;7.80;94.60;;;;;;5021502;28;19918;-75
2022/01/07 03:39:05;;;;;;;;;;;7.80;94.50;;;;;;5021677;28;19909;-74
2022/01/07 03:41:31;;;;;;;;;;;7.80;94.40;;;;;;5021613;28;19921;-75
2022/01/07 03:43:56;;;;;;;;;;;7.70;94.30;;;;;;5021282;28;20370;-75
2022/01/07 03:46:22;;;;;;;;;;;7.70;94.30;;;;;;5023958;28;20010;-74
2022/01/07 03:48:48;;;;;;;;;;;7.70;94.20;;;;;;5031448;28;19910;-74
2022/01/07 03:51:13;;;;;;;;;;;7.70;94.20;;;;;;5030969;28;19913;-74
2022/01/07 03:53:39;;;;;;;;;;;7.70;94.10;;;;;;5021340;28;19909;-74
2022/01/07 03:56:05;;;;;;;;;;;7.60;94.10;;;;;;5008021;28;19914;-74
2022/01/07 03:58:30;;;;;;;;;;;7.60;94.10;;;;;;5019780;28;20376;-74
2022/01/07 04:00:56;;;;;;;;;;;7.60;94.30;;;;;;5019765;28;20356;-74
2022/01/07 04:03:22;;;;;;;;;;;7.60;94.00;;;;;;5021127;28;19910;-74
2022/01/07 04:05:47;;;;;;;;;;;7.60;94.00;;;;;;5021139;28;19909;-74
2022/01/07 04:08:13;;;;;;;;;;;7.50;94.00;;;;;;5021088;28;19910;-75
2022/01/07 04:10:39;;;;;;;;;;;7.50;93.90;;;;;;5020833;28;19913;-74
2022/01/07 04:13:05;;;;;;;;;;;7.40;93.90;;;;;;5021054;28;19921;-74
2022/01/07 04:15:31;;;;;;;;;;;7.40;93.90;;;;;;5019579;28;20277;-74
2022/01/07 04:17:57;;;;;;;;;;;7.40;94.00;;;;;;5021100;28;19948;-74
2022/01/07 04:20:24;;;;;;;;;;;7.40;93.90;;;;;;5020857;28;20368;-74
2022/01/07 04:22:50;;;;;;;;;;;7.30;93.80;;;;;;5020956;28;19913;-74
2022/01/07 04:25:19;;;;;;;;;;;7.30;93.80;;;;;;5019926;28;19932;-74
2022/01/07 04:27:49;;;;;;;;;;;7.20;93.80;;;;;;5020771;28;19933;-74
2022/01/07 04:30:17;;;;;;;;;;;7.10;93.70;;;;;;5018542;28;20383;-74
2022/01/07 04:32:43;;;;;;;;;;;7.10;93.80;;;;;;5029253;28;19915;-74
2022/01/07 04:35:09;;;;;;;;;;;7.00;93.80;;;;;;5022868;28;19945;-74
2022/01/07 04:37:35;;;;;;;;;;;6.90;93.80;;;;;;5020656;28;19910;-74
2022/01/07 04:40:01;;;;;;;;;;;6.90;93.90;;;;;;5020247;28;20369;-77
2022/01/07 04:42:27;;;;;;;;;;;6.90;94.00;;;;;;5019098;28;19955;-77
2022/01/07 04:44:52;;;;;;;;;;;6.90;94.30;;;;;;5017949;28;19992;-77
2022/01/07 04:47:18;;;;;;;;;;;6.80;94.00;;;;;;5030765;28;19915;-77
2022/01/07 04:49:43;;;;;;;;;;;6.80;94.00;;;;;;5023666;28;20001;-77
2022/01/07 04:52:09;;;;;;;;;;;6.70;93.90;;;;;;5028709;28;19961;-76
2022/01/07 04:54:35;;;;;;;;;;;6.70;93.90;;;;;;5016399;28;19910;-76
2022/01/07 04:57:00;;;;;;;;;;;6.60;93.90;;;;;;5009325;28;19914;-76
2022/01/07 04:59:26;;;;;;;;;;;6.60;93.90;;;;;;5019674;28;19916;-76
2022/01/07 05:01:52;;;;;;;;;;;6.60;93.90;;;;;;5020443;28;19913;-76
2022/01/07 05:04:17;;;;;;;;;;;6.60;93.90;;;;;;5019701;28;19916;-77
2022/01/07 05:06:47;;;;;;;;;;;6.50;93.80;;;;;;5019243;28;19917;-76
2022/01/07 05:09:16;;;;;;;;;;;6.50;93.70;;;;;;5019689;28;19909;-76
2022/01/07 05:11:46;;;;;;;;;;;6.40;93.70;;;;;;5020018;28;19923;-76
2022/01/07 05:14:12;;;;;;;;;;;6.40;93.70;;;;;;5019418;28;19932;-76
2022/01/07 05:16:37;;;;;;;;;;;6.40;93.80;;;;;;5019988;28;19916;-74
2022/01/07 05:19:03;;;;;;;;;;;6.40;93.80;;;;;;5019547;28;19909;-76
2022/01/07 05:21:29;;;;;;;;;;;6.40;93.90;;;;;;5019977;28;19909;-76
2022/01/07 05:23:55;;;;;;;;;;;6.30;94.00;;;;;;5017319;28;20384;-76
2022/01/07 05:26:21;;;;;;;;;;;6.40;94.10;;;;;;5019815;28;19917;-76
2022/01/07 05:28:46;;;;;;;;;;;6.30;94.00;;;;;;5019135;28;20632;-76
2022/01/07 05:31:12;;;;;;;;;;;6.30;94.10;;;;;;5019574;28;19913;-76
2022/01/07 05:33:38;;;;;;;;;;;6.30;94.00;;;;;;5029704;28;19913;-76
2022/01/07 05:36:03;;;;;;;;;;;6.30;94.10;;;;;;5019630;28;19964;-76
2022/01/07 05:38:29;;;;;;;;;;;6.30;94.00;;;;;;5019211;28;19909;-76
2022/01/07 05:40:55;;;;;;;;;;;6.30;94.00;;;;;;5019326;28;20400;-76
2022/01/07 05:43:20;;;;;;;;;;;6.30;94.00;;;;;;5017509;28;19909;-76
2022/01/07 05:45:46;;;;;;;;;;;6.30;93.90;;;;;;5019280;28;20300;-76
2022/01/07 05:48:12;;;;;;;;;;;6.30;93.80;;;;;;5031254;28;20053;-76
2022/01/07 05:50:38;;;;;;;;;;;6.30;93.70;;;;;;5026966;28;19920;-76
2022/01/07 05:53:04;;;;;;;;;;;6.30;93.70;;;;;;5018732;28;19995;-76
2022/01/07 05:55:29;;;;;;;;;;;6.30;93.60;;;;;;5014177;28;19993;-76
2022/01/07 05:57:55;;;;;;;;;;;6.30;93.60;;;;;;5015006;28;19916;-76
2022/01/07 06:00:21;;;;;;;;;;;6.30;93.60;;;;;;5019110;28;19910;-76
2022/01/07 06:02:46;;;;;;;;;;;6.20;93.50;;;;;;5018815;28;19996;-76
2022/01/07 06:05:12;;;;;;;;;;;6.20;93.50;;;;;;5019126;28;19914;-77
2022/01/07 06:07:38;;;;;;;;;;;6.30;93.50;;;;;;5017462;28;19913;-78
2022/01/07 06:10:05;;;;;;;;;;;6.30;93.50;;;;;;5017466;28;19909;-77
2022/01/07 06:12:30;;;;;;;;;;;6.30;93.50;;;;;;5018444;28;19952;-73
2022/01/07 06:14:57;;;;;;;;;;;6.30;93.50;;;;;;5018533;28;19909;-77
2022/01/07 06:17:23;;;;;;;;;;;6.30;93.50;;;;;;5018819;28;19909;-78
2022/01/07 06:19:48;;;;;;;;;;;6.30;93.60;;;;;;5017665;28;19909;-78
2022/01/07 06:22:14;;;;;;;;;;;6.30;93.60;;;;;;5018115;28;20292;-73
2022/01/07 06:24:40;;;;;;;;;;;6.30;93.60;;;;;;5017703;28;20345;-79
2022/01/07 06:27:05;;;;;;;;;;;6.30;93.50;;;;;;5018388;28;19909;-78
2022/01/07 06:29:31;;;;;;;;;;;6.20;93.60;;;;;;5018507;28;19913;-81
2022/01/07 06:31:57;;;;;;;;;;;6.20;93.60;;;;;;5019563;28;19973;-75
2022/01/07 06:34:23;;;;;;;;;;;6.20;93.60;;;;;;5027930;28;19909;-81
2022/01/07 06:36:48;;;;;;;;;;;6.20;93.60;;;;;;5018271;28;19910;-75
2022/01/07 06:39:15;;;;;;;;;;;6.20;93.70;;;;;;5018588;28;20276;-79
2022/01/07 06:41:40;;;;;;;;;;;6.20;93.70;;;;;;5016880;28;20707;-74
2022/01/07 06:44:06;;;;;;;;;;;6.20;93.70;;;;;;5015904;28;19988;-77
2022/01/07 06:46:32;;;;;;;;;;;6.30;93.70;;;;;;5019543;28;19917;-75
2022/01/07 06:48:57;;;;;;;;;;;6.40;93.60;;;;;;5027258;28;19916;-76
2022/01/07 06:51:23;;;;;;;;;;;6.30;93.50;;;;;;5028999;28;19913;-74
2022/01/07 06:53:48;;;;;;;;;;;6.40;93.40;;;;;;5024272;28;20428;-73
2022/01/07 06:56:14;;;;;;;;;;;6.40;93.40;;;;;;5004703;28;20328;-74
2022/01/07 06:58:40;;;;;;;;;;;6.40;93.30;;;;;;5017807;28;19909;-74
2022/01/07 07:01:06;;;;;;;;;;;6.40;93.30;;;;;;5017983;28;19918;-73
2022/01/07 07:03:32;;;;;;;;;;;6.40;93.30;;;;;;5017872;28;19917;-73
2022/01/07 07:05:57;;;;;;;;;;;6.40;93.30;;;;;;5017758;28;19932;-73
2022/01/07 07:08:23;;;;;;;;;;;6.30;93.20;;;;;;5017398;28;20300;-73
2022/01/07 07:10:49;;;;;;;;;;;6.30;93.10;;;;;;5017645;28;19960;-73
2022/01/07 07:13:15;;;;;;;;;;;6.30;93.00;;;;;;5017607;28;20376;-73
2022/01/07 07:15:40;;;;;;;;;;;6.30;93.10;;;;;;5017679;28;19984;-73
2022/01/07 07:18:06;;;;;;;;;;;6.30;93.10;;;;;;5017958;28;19910;-73
2022/01/07 07:20:32;;;;;;;;;;;6.40;93.00;;;;;;5017384;28;19913;-78
2022/01/07 07:22:57;;;;;;;;;;;6.40;92.80;;;;;;5015910;28;19909;-74
2022/01/07 07:25:23;;;;;;;;;;;6.40;92.70;;;;;;5016396;28;19922;-74
2022/01/07 07:27:49;;;;;;;;;;;6.50;92.50;;;;;;5017396;28;20071;-74
2022/01/07 07:30:15;;;;;;;;;;;6.50;92.30;;;;;;5015772;28;20361;-74
2022/01/07 07:32:41;;;;;;;;;;;6.50;92.30;;;;;;5024378;28;19995;-74
2022/01/07 07:37:39;;;;;;;;;;;6.40;91.90;;;;;;5016988;28;19941;-74
2022/01/07 07:40:05;;;;;;;;;;;6.50;91.80;;;;;;5016379;28;19932;-74
2022/01/07 07:42:30;;;;;;;;;;;6.40;91.80;;;;;;5016991;28;19909;-72
2022/01/07 07:44:56;;;;;;;;;;;6.40;91.70;;;;;;5016960;28;19963;-73
2022/01/07 07:47:22;;;;;;;;;;;6.30;91.60;;;;;;5017415;28;19983;-75
2022/01/07 07:49:47;;;;;;;;;;;6.30;91.70;;;;;;5018259;28;19909;-72
2022/01/07 07:52:13;;;;;;;;;;;6.20;91.70;;;;;;5026582;28;19964;-72
2022/01/07 07:54:39;;;;;;;;;;;6.20;91.70;;;;;;5014083;28;19936;-73
2022/01/07 07:57:05;;;;;;;;;;;6.20;91.70;;;;;;5005866;28;19910;-72
2022/01/07 07:59:30;;;;;;;;;;;6.10;91.60;;;;;;5016582;28;19945;-73
2022/01/07 08:01:56;;;;;;;;;;;6.10;91.70;;;;;;5015632;28;19910;-73
2022/01/07 08:04:22;;;;;;;;;;;6.00;91.80;;;;;;5017008;28;20462;-73
2022/01/07 08:06:48;;;;;;;;;;;6.00;91.80;;;;;;5016324;28;19910;-73
2022/01/07 08:09:14;;;;;;;;;;;5.90;91.80;;;;;;5017103;28;20526;-73
2022/01/07 08:11:57;;;;;;;;;;;5.90;91.80;;;;;;5017353;28;19988;-70
2022/01/07 08:17:07;;;;;;;;;;;5.80;91.90;;;;;;5017283;28;19916;-73
2022/01/07 08:19:33;;;;;;;;;;;5.80;91.90;;;;;;5029994;28;19913;-72
2022/01/07 08:21:59;;;;;;;;;;;5.80;91.90;;;;;;5020307;28;19909;-73
2022/01/07 08:24:25;;;;;;;;;;;5.80;91.90;;;;;;5019235;28;19917;-73
2022/01/07 08:26:51;;;;;;;;;;;5.80;91.90;;;;;;5020563;28;19968;-72
2022/01/07 08:29:17;;;;;;;;;;;5.80;91.90;;;;;;5019704;28;19914;-72
2022/01/07 08:36:53;;;;;;;;;;;5.80;91.90;;;;;;5020236;28;20366;-73
2022/01/07 08:39:18;;;;;;;;;;;5.80;91.90;;;;;;5020122;28;19945;-73
2022/01/07 08:41:44;;;;;;;;;;;5.90;92.00;;;;;;5019915;28;19910;-73
2022/01/07 08:44:10;;;;;;;;;;;5.90;92.00;;;;;;5019921;28;19914;-73
2022/01/07 08:46:36;;;;;;;;;;;5.90;92.00;;;;;;5024402;28;19954;-73
2022/01/07 08:49:03;;;;;;;;;;;5.90;92.00;;;;;;5028054;28;19917;-73
2022/01/07 08:51:29;;;;;;;;;;;6.00;92.10;;;;;;5030655;28;19913;-73
2022/01/07 08:53:54;;;;;;;;;;;6.10;92.10;;;;;;5019693;28;20357;-73
2022/01/07 08:56:23;;;;;;;;;;;6.10;92.00;;;;;;5006295;28;19913;-73
2022/01/07 08:58:53;;;;;;;;;;;6.20;92.00;;;;;;5017891;28;19917;-73
2022/01/07 09:01:19;;;;;;;;;;;6.20;91.90;;;;;;5019322;28;19916;-73
2022/01/07 09:03:45;;;;;;;;;;;6.20;91.90;;;;;;5019526;28;19953;-73
2022/01/07 09:06:11;;;;;;;;;;;6.30;91.90;;;;;;5019175;28;19988;-73
2022/01/07 09:08:36;;;;;;;;;;;6.30;91.80;;;;;;5019662;28;19909;-73
2022/01/07 09:11:02;;;;;;;;;;;6.40;91.80;;;;;;5018853;28;19925;-73
2022/01/07 09:13:28;;;;;;;;;;;6.40;91.80;;;;;;5018768;28;19910;-73
2022/01/07 09:15:53;;;;;;;;;;;6.40;91.80;;;;;;5019046;28;19916;-73
2022/01/07 09:18:21;;;;;;;;;;;6.40;91.70;;;;;;5019149;28;19917;-72
2022/01/07 09:20:46;;;;;;;;;;;6.50;91.80;;;;;;5017331;28;20353;-71
2022/01/07 09:23:13;;;;;;;;;;;6.50;91.80;;;;;;5019515;28;19913;-73
2022/01/07 09:25:39;;;;;;;;;;;6.60;91.60;;;;;;5017076;28;19921;-72
2022/01/07 09:28:05;;;;;;;;;;;6.80;91.50;;;;;;5018998;28;19960;-72
2022/01/07 09:30:31;;;;;;;;;;;6.80;91.30;;;;;;5017689;28;19956;-72
2022/01/07 09:32:57;;;;;;;;;;;6.90;91.30;;;;;;5029322;28;20380;-72
2022/01/07 09:35:23;;;;;;;;;;;7.00;91.10;;;;;;5019907;28;19933;-72
2022/01/07 09:37:50;;;;;;;;;;;7.10;91.10;;;;;;5018786;28;20012;-73
2022/01/07 09:40:16;;;;;;;;;;;7.30;90.90;;;;;;5018442;28;19909;-73
2022/01/07 09:42:55;;;;;;;;;;;7.50;90.70;;;;;;5018711;28;20389;-72
2022/01/07 09:45:22;;;;;;;;;;;7.70;90.40;;;;;;5005728;28;19917;-73
2022/01/07 09:47:48;;;;;;;;;;;8.00;89.60;;;;;;5030540;28;19968;-73
2022/01/07 09:50:14;;;;;;;;;;;8.20;88.90;;;;;;5024257;28;19910;-73
2022/01/07 09:52:39;;;;;;;;;;;8.50;87.80;;;;;;5024063;28;19918;-73
2022/01/07 09:55:05;;;;;;;;;;;8.70;86.90;;;;;;5012335;28;19933;-72
2022/01/07 09:57:31;;;;;;;;;;;9.00;84.80;;;;;;5027157;28;19917;-73
2022/01/07 09:59:56;;;;;;;;;;;9.20;83.80;;;;;;5018747;28;19916;-73
2022/01/07 10:02:23;;;;;;;;;;;9.30;84.10;;;;;;5018367;28;19910;-72
2022/01/07 10:04:49;;;;;;;;;;;9.50;82.20;;;;;;5018657;28;20003;-72
2022/01/07 10:07:22;;;;;;;;;;;9.70;81.60;;;;;;5031611;28;19944;-72
2022/01/07 10:10:01;;;;;;;;;;;9.90;80.80;;;;;;5005971;28;19914;-73
2022/01/07 10:12:28;;;;;;;;;;;10.00;80.00;;;;;;5018450;28;19932;-73
2022/01/07 10:15:10;;;;;;;;;;;10.20;79.70;;;;;;5018384;28;19909;-73
2022/01/07 10:17:35;;;;;;;;;;;10.30;78.40;;;;;;5018168;28;19960;-73
2022/01/07 10:20:01;;;;;;;;;;;10.50;77.60;;;;;;5018487;28;19909;-73
2022/01/07 10:22:27;;;;;;;;;;;10.70;76.80;;;;;;5018152;28;19910;-73
2022/01/07 10:24:57;;;;;;;;;;;11.00;77.20;;;;;;5019907;28;19936;-73
2022/01/07 10:27:24;;;;;;;;;;;11.40;76.20;;;;;;5017443;28;19910;-73
2022/01/07 10:29:50;;;;;;;;;;;11.80;74.30;;;;;;5018053;28;19910;-73
2022/01/07 10:32:21;;;;;;;;;;;12.10;73.00;;;;;;5022695;28;19947;-73
2022/01/07 10:35:05;;;;;;;;;;;12.50;73.90;;;;;;5024534;28;19910;-71
2022/01/07 10:37:31;;;;;;;;;;;12.80;71.70;;;;;;5017978;28;19916;-70
2022/01/07 10:39:56;;;;;;;;;;;13.20;70.50;;;;;;5017674;28;20276;-70
2022/01/07 10:42:23;;;;;;;;;;;13.50;69.60;;;;;;5016813;28;19913;-70
2022/01/07 10:44:59;;;;;;;;;;;13.50;67.50;;;;;;5017510;28;19910;-70
2022/01/07 10:47:25;;;;;;;;;;;13.40;68.00;;;;;;5028665;28;19909;-70
2022/01/07 10:50:11;;;;;;;;;;;13.60;68.60;;;;;;5021839;28;19959;-70
2022/01/07 10:52:36;;;;;;;;;;;13.80;69.70;;;;;;5022811;28;20353;-70
2022/01/07 10:55:12;;;;;;;;;;;14.10;68.80;;;;;;5017627;28;19920;-70
2022/01/07 10:57:44;;;;;;;;;;;14.30;66.10;;;;;;5017264;28;19914;-70
2022/01/07 11:00:13;;;;;;;;;;;14.60;64.50;;;;;;5017876;28;20368;-70
2022/01/07 11:02:41;;;;;;;;;;;14.70;64.00;;;;;;5017623;28;19952;-70
2022/01/07 11:05:07;;;;;;;;;;;14.90;64.30;;;;;;5017912;28;20419;-70
2022/01/07 11:07:34;;;;;;;;;;;15.10;64.90;;;;;;5017054;28;19909;-70
2022/01/07 11:09:59;;;;;;;;;;;15.20;63.50;;;;;;5017748;28;20004;-70
2022/01/07 11:12:27;;;;;;;;;;;15.30;63.80;;;;;;5017110;28;19999;-70
2022/01/07 11:14:53;;;;;;;;;;;15.50;63.60;;;;;;5017559;28;19914;-70
2022/01/07 11:17:21;;;;;;;;;;;15.40;61.00;;;;;;5017262;28;20008;-70
2022/01/07 11:19:52;;;;;;;;;;;15.60;63.40;;;;;;5017504;28;19976;-70
2022/01/07 11:22:18;;;;;;;;;;;15.60;61.50;;;;;;5017331;28;20342;-70
2022/01/07 11:24:44;;;;;;;;;;;15.70;61.80;;;;;;5019305;28;20407;-70
2022/01/07 11:27:12;;;;;;;;;;;15.70;60.60;;;;;;5017455;28;19914;-70
2022/01/07 11:29:39;;;;;;;;;;;15.80;60.10;;;;;;5017337;28;19913;-70
2022/01/07 11:32:23;;;;;;;;;;;15.60;60.20;;;;;;5020201;28;19914;-70
2022/01/07 11:34:49;;;;;;;;;;;15.90;60.90;;;;;;5023672;28;19910;-70
2022/01/07 11:37:35;;;;;;;;;;;16.10;60.70;;;;;;5017808;28;19909;-70
2022/01/07 11:40:00;;;;;;;;;;;16.10;60.00;;;;;;5016924;28;19917;-70
2022/01/07 11:42:42;;;;;;;;;;;16.20;60.50;;;;;;5016867;28;20380;-70
2022/01/07 11:45:26;;;;;;;;;;;16.30;60.40;;;;;;5017034;28;19968;-70
2022/01/07 11:47:52;;;;;;;;;;;16.30;59.60;;;;;;5017059;28;20004;-70
2022/01/07 11:50:18;;;;;;;;;;;16.50;61.40;;;;;;5022536;28;19955;-70
2022/01/07 11:53:04;;;;;;;;;;;16.40;59.70;;;;;;5021731;28;19918;-70
2022/01/07 11:55:30;;;;;;;;;;;16.40;60.20;;;;;;5020634;28;19913;-70
2022/01/07 11:58:01;;;;;;;;;;;16.60;62.00;;;;;;5020429;28;19916;-70
2022/01/07 12:00:46;;;;;;;;;;;16.70;61.60;;;;;;5021011;28;19946;-75
2022/01/07 12:03:11;;;;;;;;;;;16.60;58.00;;;;;;5008053;28;19917;-71
2022/01/07 12:05:37;;;;;;;;;;;16.70;59.30;;;;;;5020718;28;19967;-71
2022/01/07 12:08:03;;;;;;;;;;;16.90;61.20;;;;;;5019231;28;20072;-70
2022/01/07 12:10:29;;;;;;;;;;;17.00;60.80;;;;;;5020746;28;19909;-74
2022/01/07 12:13:04;;;;;;;;;;;16.80;57.50;;;;;;5020297;28;19914;-71
2022/01/07 12:15:29;;;;;;;;;;;16.90;58.30;;;;;;5020711;28;19910;-71
2022/01/07 12:18:07;;;;;;;;;;;16.80;58.10;;;;;;5019403;28;20356;-71
2022/01/07 12:20:35;;;;;;;;;;;16.60;58.40;;;;;;5020364;28;19968;-71
2022/01/07 12:23:01;;;;;;;;;;;16.50;58.30;;;;;;5020534;28;19968;-71
2022/01/07 12:25:27;;;;;;;;;;;16.30;58.80;;;;;;5021150;28;19925;-72
2022/01/07 12:28:00;;;;;;;;;;;16.40;61.10;;;;;;5020310;28;19913;-74
2022/01/07 12:30:26;;;;;;;;;;;16.40;58.60;;;;;;5018961;28;20005;-70
2022/01/07 12:32:58;;;;;;;;;;;16.20;58.90;;;;;;5029912;28;19944;-74
2022/01/07 12:35:28;;;;;;;;;;;16.10;59.80;;;;;;5007633;28;19977;-73
2022/01/07 12:37:54;;;;;;;;;;;15.70;58.60;;;;;;5019978;28;19920;-72
2022/01/07 12:40:20;;;;;;;;;;;15.00;59.20;;;;;;5019157;28;19914;-72
2022/01/07 12:42:45;;;;;;;;;;;14.80;62.00;;;;;;5019725;28;19914;-71
2022/01/07 12:45:12;;;;;;;;;;;14.40;61.50;;;;;;5020417;28;19909;-71
2022/01/07 12:47:38;;;;;;;;;;;14.10;62.90;;;;;;5031493;28;19913;-70
2022/01/07 12:50:04;;;;;;;;;;;13.80;64.10;;;;;;5024534;28;19960;-70
2022/01/07 12:52:35;;;;;;;;;;;13.60;65.40;;;;;;5024828;28;20366;-70
2022/01/07 12:55:02;;;;;;;;;;;13.40;66.40;;;;;;5019713;28;19916;-70
2022/01/07 12:57:36;;;;;;;;;;;13.20;65.20;;;;;;5019741;28;19959;-70
2022/01/07 13:00:07;;;;;;;;;;;13.00;67.50;;;;;;5007479;28;19916;-69
2022/01/07 13:02:33;;;;;;;;;;;12.90;67.00;;;;;;5019649;28;19914;-72
2022/01/07 13:05:18;;;;;;;;;;;12.80;66.30;;;;;;5019368;28;20052;-72
2022/01/07 13:07:45;;;;;;;;;;;12.70;67.00;;;;;;5019631;28;19913;-70
2022/01/07 13:10:12;;;;;;;;;;;12.60;67.80;;;;;;5019929;28;19910;-70
2022/01/07 13:12:38;;;;;;;;;;;12.40;67.50;;;;;;5019227;28;19952;-69
2022/01/07 13:15:05;;;;;;;;;;;12.30;67.80;;;;;;5019775;28;20284;-70
2022/01/07 13:17:31;;;;;;;;;;;12.20;67.70;;;;;;5018813;28;20001;-70
2022/01/07 13:19:57;;;;;;;;;;;12.20;67.70;;;;;;5019729;28;20388;-72
2022/01/07 13:22:28;;;;;;;;;;;12.10;68.50;;;;;;5019313;28;20296;-72
2022/01/07 13:24:54;;;;;;;;;;;12.10;68.70;;;;;;5021290;28;19925;-72
2022/01/07 13:27:19;;;;;;;;;;;12.00;69.10;;;;;;5018901;28;19914;-70
2022/01/07 13:29:46;;;;;;;;;;;12.00;70.30;;;;;;5019339;28;19910;-69
2022/01/07 13:32:12;;;;;;;;;;;12.10;69.60;;;;;;5023612;28;19913;-69
2022/01/07 13:34:39;;;;;;;;;;;12.30;69.30;;;;;;5026953;28;20284;-70
2022/01/07 13:37:06;;;;;;;;;;;12.50;69.00;;;;;;5018894;28;19910;-69
2022/01/07 13:39:40;;;;;;;;;;;12.70;69.60;;;;;;5018716;28;19913;-69
2022/01/07 13:42:07;;;;;;;;;;;12.90;69.00;;;;;;5007303;28;20052;-69
2022/01/07 13:44:48;;;;;;;;;;;12.90;67.50;;;;;;5018251;28;20009;-69
2022/01/07 13:47:34;;;;;;;;;;;12.90;66.80;;;;;;5028535;28;19916;-69
2022/01/07 13:50:11;;;;;;;;;;;13.00;68.00;;;;;;5022510;28;19910;-69
2022/01/07 13:52:39;;;;;;;;;;;13.10;66.20;;;;;;5024204;28;20300;-69
2022/01/07 13:55:05;;;;;;;;;;;13.20;67.50;;;;;;5018817;28;20300;-69
2022/01/07 13:57:31;;;;;;;;;;;13.30;66.00;;;;;;5018775;28;19915;-70
2022/01/07 13:59:57;;;;;;;;;;;13.10;65.60;;;;;;5018880;28;19913;-69
2022/01/07 14:02:26;;;;;;;;;;;13.10;66.70;;;;;;5018677;28;19985;-70
2022/01/07 14:04:55;;;;;;;;;;;13.00;65.90;;;;;;5006257;28;19909;-69
2022/01/07 14:07:34;;;;;;;;;;;12.90;65.60;;;;;;5018670;28;20385;-69
2022/01/07 14:10:01;;;;;;;;;;;12.80;66.60;;;;;;5018822;28;19910;-69
2022/01/07 14:12:27;;;;;;;;;;;12.70;66.70;;;;;;5017907;28;20258;-69
2022/01/07 14:15:01;;;;;;;;;;;12.60;66.20;;;;;;5018681;28;19922;-70
2022/01/07 14:17:27;;;;;;;;;;;12.50;65.30;;;;;;5018302;28;19909;-70
2022/01/07 14:19:56;;;;;;;;;;;12.30;66.90;;;;;;5018229;28;19945;-69
2022/01/07 14:22:22;;;;;;;;;;;12.10;66.40;;;;;;5016729;28;19910;-70
2022/01/07 14:24:49;;;;;;;;;;;12.00;67.50;;;;;;5020190;28;19922;-70
2022/01/07 14:27:44;;;;;;;;;;;11.90;68.20;;;;;;5016336;28;19916;-70
2022/01/07 14:30:12;;;;;;;;;;;11.80;68.30;;;;;;5003056;28;19955;-71
2022/01/07 14:32:38;;;;;;;;;;;11.70;69.00;;;;;;5025620;28;19913;-71
2022/01/07 14:35:04;;;;;;;;;;;11.60;69.30;;;;;;5021306;28;19932;-70
2022/01/07 14:37:30;;;;;;;;;;;11.50;69.60;;;;;;5017741;28;19917;-70